Time,TemperatureF,DewpointF,PressureIn,WindDirection,WindDirectionDegrees,WindSpeedMPH,WindSpeedGustMPH,Humidity,HourlyPrecipIn,Conditions,Clouds,dailyrainin,SoftwareType,DateUTC
2013-01-03 00:03:00,30.3,26.1,30.20,WNW,297,1.0,2.0,84,0.00,,---,0.00,VWS V14.01,2013-01-03 08:03:00,
2013-01-03 00:08:00,29.8,25.6,30.20,WNW,297,0.0,1.0,84,0.00,,---,0.00,VWS V14.01,2013-01-03 08:08:00,
2013-01-03 00:13:00,29.6,25.4,30.20,WNW,297,0.0,0.0,84,0.00,,---,0.00,VWS V14.01,2013-01-03 08:13:00,
2013-01-03 00:18:00,29.3,25.4,30.20,ESE,104,4.0,5.0,85,0.00,,---,0.00,VWS V14.01,2013-01-03 08:18:00,
2013-01-03 00:23:00,29.2,25.3,30.20,SW,229,4.0,5.0,85,0.00,,---,0.00,VWS V14.01,2013-01-03 08:23:00,
2013-01-03 00:28:00,29.3,25.4,30.21,SW,229,2.0,2.0,85,0.00,,---,0.00,VWS V14.01,2013-01-03 08:28:00,
2013-01-03 00:33:00,29.3,25.4,30.21,SW,229,0.0,1.0,85,0.00,,---,0.00,VWS V14.01,2013-01-03 08:33:00,
2013-01-03 00:38:00,29.2,25.3,30.21,SW,229,0.0,0.0,85,0.00,,---,0.00,VWS V14.01,2013-01-03 08:38:00,
2013-01-03 00:43:00,29.0,25.1,30.20,SW,229,0.0,0.0,85,0.00,,---,0.00,VWS V14.01,2013-01-03 08:43:00,
2013-01-03 00:48:00,29.0,25.1,30.20,SE,130,1.0,2.0,85,0.00,,---,0.00,VWS V14.01,2013-01-03 08:48:00,
2013-01-03 00:53:00,29.0,25.1,30.20,SE,130,0.0,0.0,85,0.00,,---,0.00,VWS V14.01,2013-01-03 08:53:00,
2013-01-03 00:58:00,28.9,25.0,30.20,SE,130,0.0,0.0,85,0.00,,---,0.00,VWS V14.01,2013-01-03 08:58:00,
2013-01-03 01:03:00,28.7,24.8,30.20,SE,126,0.0,1.0,85,0.00,,---,0.00,VWS V14.01,2013-01-03 09:03:00,
2013-01-03 01:08:00,28.7,24.8,30.20,SE,125,0.0,2.0,85,0.00,,---,0.00,VWS V14.01,2013-01-03 09:08:00,
2013-01-03 01:13:00,28.7,25.0,30.20,SE,126,0.0,4.0,86,0.00,,---,0.00,VWS V14.01,2013-01-03 09:13:00,
2013-01-03 01:18:00,28.8,25.1,30.20,SE,126,0.0,2.0,86,0.00,,---,0.00,VWS V14.01,2013-01-03 09:18:00,
2013-01-03 01:23:00,29.1,25.4,30.20,SE,126,0.0,2.0,86,0.00,,---,0.00,VWS V14.01,2013-01-03 09:23:00,
2013-01-03 01:28:00,29.7,25.8,30.20,SE,126,0.0,0.0,85,0.00,,---,0.00,VWS V14.01,2013-01-03 09:28:00,
2013-01-03 01:33:00,30.2,26.5,30.20,SE,126,0.0,0.0,86,0.00,,---,0.00,VWS V14.01,2013-01-03 09:33:00,
2013-01-03 01:38:00,30.7,26.7,30.20,WNW,291,0.0,4.0,85,0.00,,---,0.00,VWS V14.01,2013-01-03 09:38:00,
2013-01-03 01:43:00,31.5,27.2,30.20,West,280,2.0,3.0,84,0.00,,---,0.00,VWS V14.01,2013-01-03 09:43:00,
2013-01-03 01:48:00,31.5,27.2,30.21,ENE,61,0.0,4.0,84,0.00,,---,0.00,VWS V14.01,2013-01-03 09:48:00,
2013-01-03 01:53:00,30.9,26.6,30.21,ENE,61,0.0,0.0,84,0.00,,---,0.00,VWS V14.01,2013-01-03 09:53:00,
2013-01-03 01:58:00,30.5,26.2,30.21,ENE,61,0.0,0.0,84,0.00,,---,0.00,VWS V14.01,2013-01-03 09:58:00,
2013-01-03 02:03:00,30.1,26.1,30.21,West,272,0.0,3.0,85,0.00,,---,0.00,VWS V14.01,2013-01-03 10:03:00,
2013-01-03 02:08:00,30.0,26.0,30.21,West,272,0.0,0.0,85,0.00,,---,0.00,VWS V14.01,2013-01-03 10:08:00,
2013-01-03 02:13:00,30.0,26.0,30.21,West,272,0.0,0.0,85,0.00,,---,0.00,VWS V14.01,2013-01-03 10:13:00,
2013-01-03 02:19:00,29.7,25.8,30.21,SE,146,0.0,0.0,85,0.00,,---,0.00,VWS V14.01,2013-01-03 10:19:00,
2013-01-03 02:24:00,29.4,25.5,30.22,SE,146,0.0,1.0,85,0.00,,---,0.00,VWS V14.01,2013-01-03 10:24:00,
2013-01-03 02:29:00,29.2,25.3,30.22,SE,146,0.0,0.0,85,0.00,,---,0.00,VWS V14.01,2013-01-03 10:29:00,
2013-01-03 02:34:00,29.0,25.1,30.22,SE,146,0.0,0.0,85,0.00,,---,0.00,VWS V14.01,2013-01-03 10:34:00,
2013-01-03 02:39:00,28.9,25.0,30.21,SW,230,0.0,1.0,85,0.00,,---,0.00,VWS V14.01,2013-01-03 10:39:00,
2013-01-03 02:44:00,28.8,25.1,30.22,SSE,168,0.0,0.0,86,0.00,,---,0.00,VWS V14.01,2013-01-03 10:44:00,
2013-01-03 02:49:00,28.7,24.8,30.21,SSE,168,0.0,0.0,85,0.00,,---,0.00,VWS V14.01,2013-01-03 10:49:00,
2013-01-03 02:54:00,28.6,24.7,30.21,SSE,168,0.0,0.0,85,0.00,,---,0.00,VWS V14.01,2013-01-03 10:54:00,
2013-01-03 02:59:00,28.4,24.8,30.21,SSE,168,0.0,0.0,86,0.00,,---,0.00,VWS V14.01,2013-01-03 10:59:00,
2013-01-03 03:04:00,28.4,24.8,30.21,SSE,168,0.0,0.0,86,0.00,,---,0.00,VWS V14.01,2013-01-03 11:04:00,
2013-01-03 03:09:00,28.4,24.8,30.20,SSE,168,0.0,0.0,86,0.00,,---,0.00,VWS V14.01,2013-01-03 11:09:00,
2013-01-03 03:14:00,28.3,24.7,30.20,SSE,168,0.0,0.0,86,0.00,,---,0.00,VWS V14.01,2013-01-03 11:14:00,
2013-01-03 03:19:00,28.1,24.5,30.20,SSE,168,0.0,1.0,86,0.00,,---,0.00,VWS V14.01,2013-01-03 11:19:00,
2013-01-03 03:24:00,28.1,24.5,30.20,SSE,168,0.0,0.0,86,0.00,,---,0.00,VWS V14.01,2013-01-03 11:24:00,
2013-01-03 03:29:00,28.0,24.4,30.20,SSE,168,0.0,0.0,86,0.00,,---,0.00,VWS V14.01,2013-01-03 11:29:00,
2013-01-03 03:34:00,27.9,24.3,30.19,SSE,168,0.0,0.0,86,0.00,,---,0.00,VWS V14.01,2013-01-03 11:34:00,
2013-01-03 03:39:00,27.9,24.3,30.20,SSE,168,0.0,0.0,86,0.00,,---,0.00,VWS V14.01,2013-01-03 11:39:00,
2013-01-03 03:44:00,28.2,24.6,30.19,SW,221,0.0,2.0,86,0.00,,---,0.00,VWS V14.01,2013-01-03 11:44:00,
2013-01-03 03:49:00,29.0,25.4,30.19,SW,221,0.0,3.0,86,0.00,,---,0.00,VWS V14.01,2013-01-03 11:49:00,
2013-01-03 03:54:00,29.4,25.7,30.19,SW,221,0.0,1.0,86,0.00,,---,0.00,VWS V14.01,2013-01-03 11:54:00,
2013-01-03 03:59:00,29.3,25.6,30.19,SW,221,0.0,0.0,86,0.00,,---,0.00,VWS V14.01,2013-01-03 11:59:00,
2013-01-03 04:04:00,29.2,25.5,30.19,SW,221,0.0,0.0,86,0.00,,---,0.00,VWS V14.01,2013-01-03 12:04:00,
2013-01-03 04:09:00,29.2,25.5,30.18,SW,221,0.0,0.0,86,0.00,,---,0.00,VWS V14.01,2013-01-03 12:09:00,
2013-01-03 04:14:00,29.3,25.6,30.18,SW,221,0.0,0.0,86,0.00,,---,0.00,VWS V14.01,2013-01-03 12:14:00,
2013-01-03 04:19:00,29.1,25.4,30.18,SW,221,0.0,0.0,86,0.00,,---,0.00,VWS V14.01,2013-01-03 12:19:00,
2013-01-03 04:24:00,29.0,25.4,30.18,SW,221,0.0,0.0,86,0.00,,---,0.00,VWS V14.01,2013-01-03 12:24:00,
2013-01-03 04:29:00,29.1,25.4,30.18,SW,221,0.0,2.0,86,0.00,,---,0.00,VWS V14.01,2013-01-03 12:29:00,
2013-01-03 04:34:00,29.2,25.5,30.17,SW,221,0.0,1.0,86,0.00,,---,0.00,VWS V14.01,2013-01-03 12:34:00,
2013-01-03 04:39:00,29.0,25.4,30.17,SW,221,0.0,0.0,86,0.00,,---,0.00,VWS V14.01,2013-01-03 12:39:00,
2013-01-03 04:44:00,28.7,25.0,30.17,SW,221,0.0,3.0,86,0.00,,---,0.00,VWS V14.01,2013-01-03 12:44:00,
2013-01-03 04:49:00,28.9,25.2,30.16,SW,221,0.0,0.0,86,0.00,,---,0.00,VWS V14.01,2013-01-03 12:49:00,
2013-01-03 04:54:00,29.3,25.6,30.16,SW,221,0.0,3.0,86,0.00,,---,0.00,VWS V14.01,2013-01-03 12:54:00,
2013-01-03 04:59:00,29.9,26.2,30.16,SW,221,0.0,0.0,86,0.00,,---,0.00,VWS V14.01,2013-01-03 12:59:00,
2013-01-03 05:04:00,30.6,26.1,30.16,SW,221,0.0,1.0,83,0.00,,---,0.00,VWS V14.01,2013-01-03 13:04:00,
2013-01-03 05:09:00,31.2,26.6,30.16,SW,221,0.0,2.0,83,0.00,,---,0.00,VWS V14.01,2013-01-03 13:09:00,
2013-01-03 05:14:00,31.7,26.2,30.16,SSW,211,1.0,3.0,80,0.00,,---,0.00,VWS V14.01,2013-01-03 13:14:00,
2013-01-03 05:19:00,32.0,26.5,30.16,SSW,211,0.0,3.0,80,0.00,,---,0.00,VWS V14.01,2013-01-03 13:19:00,
2013-01-03 05:24:00,32.1,26.6,30.16,SSW,211,0.0,2.0,80,0.00,,---,0.00,VWS V14.01,2013-01-03 13:24:00,
2013-01-03 05:29:00,31.9,26.7,30.16,SSW,211,0.0,2.0,81,0.00,,---,0.00,VWS V14.01,2013-01-03 13:29:00,
2013-01-03 05:34:00,31.6,26.1,30.16,SSW,211,0.0,0.0,80,0.00,,---,0.00,VWS V14.01,2013-01-03 13:34:00,
2013-01-03 05:39:00,31.4,26.2,30.16,SSW,211,0.0,0.0,81,0.00,,---,0.00,VWS V14.01,2013-01-03 13:39:00,
2013-01-03 05:44:00,31.1,26.3,30.16,SSW,211,0.0,1.0,82,0.00,,---,0.00,VWS V14.01,2013-01-03 13:44:00,
2013-01-03 05:49:00,30.2,25.7,30.16,ESE,120,0.0,2.0,83,0.00,,---,0.00,VWS V14.01,2013-01-03 13:49:00,
2013-01-03 05:54:00,29.7,25.5,30.16,ESE,120,0.0,1.0,84,0.00,,---,0.00,VWS V14.01,2013-01-03 13:54:00,
2013-01-03 05:59:00,29.1,24.9,30.15,ESE,120,0.0,0.0,84,0.00,,---,0.00,VWS V14.01,2013-01-03 13:59:00,
2013-01-03 06:04:00,28.7,24.8,30.15,ESE,120,0.0,2.0,85,0.00,,---,0.00,VWS V14.01,2013-01-03 14:04:00,
2013-01-03 06:09:00,28.2,24.3,30.15,ESE,120,0.0,2.0,85,0.00,,---,0.00,VWS V14.01,2013-01-03 14:09:00,
2013-01-03 06:14:00,27.9,24.0,30.15,ESE,120,0.0,2.0,85,0.00,,---,0.00,VWS V14.01,2013-01-03 14:14:00,
2013-01-03 06:19:00,27.8,23.9,30.15,ESE,120,0.0,0.0,85,0.00,,---,0.00,VWS V14.01,2013-01-03 14:19:00,
2013-01-03 06:24:00,27.6,24.0,30.15,ESE,120,0.0,2.0,86,0.00,,---,0.00,VWS V14.01,2013-01-03 14:24:00,
2013-01-03 06:29:00,27.5,23.9,30.15,ESE,120,0.0,0.0,86,0.00,,---,0.00,VWS V14.01,2013-01-03 14:29:00,
2013-01-03 06:34:00,27.4,23.8,30.15,East,88,0.0,4.0,86,0.00,,---,0.00,VWS V14.01,2013-01-03 14:34:00,
2013-01-03 06:39:00,27.4,23.8,30.15,East,88,0.0,0.0,86,0.00,,---,0.00,VWS V14.01,2013-01-03 14:39:00,
2013-01-03 06:44:00,27.2,23.6,30.15,East,88,0.0,0.0,86,0.00,,---,0.00,VWS V14.01,2013-01-03 14:44:00,
2013-01-03 06:49:00,27.1,23.5,30.14,East,88,0.0,0.0,86,0.00,,---,0.00,VWS V14.01,2013-01-03 14:49:00,
2013-01-03 06:54:00,27.0,23.4,30.14,East,88,0.0,0.0,86,0.00,,---,0.00,VWS V14.01,2013-01-03 14:54:00,
2013-01-03 06:59:00,26.9,23.3,30.14,East,88,0.0,2.0,86,0.00,,---,0.00,VWS V14.01,2013-01-03 14:59:00,
2013-01-03 07:04:00,26.9,23.3,30.14,East,88,0.0,3.0,86,0.00,,---,0.00,VWS V14.01,2013-01-03 15:04:00,
2013-01-03 07:09:00,27.1,23.5,30.14,East,88,0.0,1.0,86,0.00,,---,0.00,VWS V14.01,2013-01-03 15:09:00,
2013-01-03 07:14:00,27.1,23.5,30.14,East,79,0.0,6.0,86,0.00,,---,0.00,VWS V14.01,2013-01-03 15:14:00,
2013-01-03 07:19:00,27.1,23.5,30.14,East,79,0.0,2.0,86,0.00,,---,0.00,VWS V14.01,2013-01-03 15:19:00,
2013-01-03 07:24:00,27.2,23.6,30.14,East,79,1.0,2.0,86,0.00,,---,0.00,VWS V14.01,2013-01-03 15:24:00,
2013-01-03 07:29:00,27.1,23.5,30.14,East,79,0.0,2.0,86,0.00,,---,0.00,VWS V14.01,2013-01-03 15:29:00,
2013-01-03 07:34:00,26.9,23.3,30.14,East,79,0.0,2.0,86,0.00,,---,0.00,VWS V14.01,2013-01-03 15:34:00,
2013-01-03 07:39:00,26.5,22.9,30.15,East,79,0.0,1.0,86,0.00,,---,0.00,VWS V14.01,2013-01-03 15:39:00,
2013-01-03 07:44:00,26.5,22.9,30.15,East,79,0.0,0.0,86,0.00,,---,0.00,VWS V14.01,2013-01-03 15:44:00,
2013-01-03 07:49:00,26.3,22.7,30.15,East,79,0.0,3.0,86,0.00,,---,0.00,VWS V14.01,2013-01-03 15:49:00,
2013-01-03 07:54:00,26.2,22.6,30.15,East,79,0.0,0.0,86,0.00,,---,0.00,VWS V14.01,2013-01-03 15:54:00,
2013-01-03 07:59:00,26.2,22.6,30.15,East,79,0.0,0.0,86,0.00,,---,0.00,VWS V14.01,2013-01-03 15:59:00,
2013-01-03 08:04:00,26.1,22.5,30.15,East,79,0.0,0.0,86,0.00,,---,0.00,VWS V14.01,2013-01-03 16:04:00,
2013-01-03 08:09:00,26.0,22.4,30.15,East,79,0.0,0.0,86,0.00,,---,0.00,VWS V14.01,2013-01-03 16:09:00,
2013-01-03 08:14:00,26.0,22.4,30.15,East,79,0.0,0.0,86,0.00,,---,0.00,VWS V14.01,2013-01-03 16:14:00,
2013-01-03 08:19:00,26.0,22.4,30.15,East,79,0.0,0.0,86,0.00,,---,0.00,VWS V14.01,2013-01-03 16:19:00,
2013-01-03 08:24:00,26.1,22.5,30.16,East,79,0.0,0.0,86,0.00,,---,0.00,VWS V14.01,2013-01-03 16:24:00,
2013-01-03 08:29:00,26.1,22.5,30.16,East,79,0.0,0.0,86,0.00,,---,0.00,VWS V14.01,2013-01-03 16:29:00,
2013-01-03 08:34:00,26.1,22.5,30.15,East,79,0.0,0.0,86,0.00,,---,0.00,VWS V14.01,2013-01-03 16:34:00,
2013-01-03 08:39:00,26.0,22.4,30.15,East,79,0.0,0.0,86,0.00,,---,0.00,VWS V14.01,2013-01-03 16:39:00,
2013-01-03 08:44:00,26.2,22.6,30.15,East,79,0.0,1.0,86,0.00,,---,0.00,VWS V14.01,2013-01-03 16:44:00,
2013-01-03 08:49:00,26.4,22.8,30.15,East,79,0.0,0.0,86,0.00,,---,0.00,VWS V14.01,2013-01-03 16:49:00,
2013-01-03 08:54:00,27.1,23.5,30.15,East,79,0.0,3.0,86,0.00,,---,0.00,VWS V14.01,2013-01-03 16:54:00,
2013-01-03 08:59:00,28.0,24.1,30.14,ENE,78,1.0,4.0,85,0.00,,---,0.00,VWS V14.01,2013-01-03 16:59:00,
2013-01-03 09:04:00,29.1,25.4,30.14,SSE,157,8.0,11.0,86,0.00,,---,0.00,VWS V14.01,2013-01-03 17:04:00,
2013-01-03 09:09:00,31.2,26.9,30.14,SSE,158,0.0,6.0,84,0.00,,---,0.00,VWS V14.01,2013-01-03 17:09:00,
2013-01-03 09:14:00,33.5,27.1,30.14,SE,136,2.0,15.0,77,0.00,,---,0.00,VWS V14.01,2013-01-03 17:14:00,
2013-01-03 09:19:00,35.1,26.7,30.14,SE,138,12.0,13.0,71,0.00,,---,0.00,VWS V14.01,2013-01-03 17:19:00,
2013-01-03 09:24:00,36.3,25.7,30.14,ESE,117,8.0,10.0,65,0.00,,---,0.00,VWS V14.01,2013-01-03 17:24:00,
2013-01-03 09:29:00,38.1,25.1,30.14,East,98,14.0,20.0,59,0.00,,---,0.00,VWS V14.01,2013-01-03 17:29:00,
2013-01-03 09:34:00,38.6,25.1,30.14,NNW,335,3.0,13.0,58,0.00,,---,0.00,VWS V14.01,2013-01-03 17:34:00,
2013-01-03 09:39:00,38.8,24.5,30.14,East,90,6.0,16.0,56,0.00,,---,0.00,VWS V14.01,2013-01-03 17:39:00,
2013-01-03 09:44:00,39.0,23.8,30.14,SSE,161,8.0,18.0,54,0.00,,---,0.00,VWS V14.01,2013-01-03 17:44:00,
2013-01-03 09:49:00,39.2,23.5,30.15,ESE,119,19.0,21.0,53,0.00,,---,0.00,VWS V14.01,2013-01-03 17:49:00,
2013-01-03 09:54:00,39.4,23.7,30.14,East,101,5.0,14.0,53,0.00,,---,0.00,VWS V14.01,2013-01-03 17:54:00,
2013-01-03 09:59:00,39.5,23.4,30.14,East,97,5.0,15.0,52,0.00,,---,0.00,VWS V14.01,2013-01-03 17:59:00,
2013-01-03 10:04:00,39.7,23.5,30.14,SSE,150,14.0,18.0,52,0.00,,---,0.00,VWS V14.01,2013-01-03 18:04:00,
2013-01-03 10:09:00,40.2,23.1,30.14,SE,136,6.0,15.0,50,0.00,,---,0.00,VWS V14.01,2013-01-03 18:09:00,
2013-01-03 10:14:00,40.5,23.3,30.14,NE,36,5.0,9.0,50,0.00,,---,0.00,VWS V14.01,2013-01-03 18:14:00,
2013-01-03 10:19:00,40.8,23.1,30.14,East,101,5.0,17.0,49,0.00,,---,0.00,VWS V14.01,2013-01-03 18:19:00,
2013-01-03 10:24:00,40.9,23.2,30.14,SE,134,12.0,13.0,49,0.00,,---,0.00,VWS V14.01,2013-01-03 18:24:00,
2013-01-03 10:29:00,41.0,24.7,30.14,SE,130,0.0,7.0,52,0.00,,---,0.00,VWS V14.01,2013-01-03 18:29:00,
2013-01-03 10:34:00,40.4,26.0,30.14,SE,130,0.0,0.0,56,0.00,,---,0.00,VWS V14.01,2013-01-03 18:34:00,
2013-01-03 10:39:00,39.7,26.6,30.14,SE,130,0.0,0.0,59,0.00,,---,0.00,VWS V14.01,2013-01-03 18:39:00,
2013-01-03 10:44:00,39.2,26.5,30.14,West,261,1.0,4.0,60,0.00,,---,0.00,VWS V14.01,2013-01-03 18:44:00,
2013-01-03 10:49:00,39.0,25.9,30.14,West,261,0.0,0.0,59,0.00,,---,0.00,VWS V14.01,2013-01-03 18:49:00,
2013-01-03 10:54:00,39.1,27.2,30.14,West,261,0.0,3.0,62,0.00,,---,0.00,VWS V14.01,2013-01-03 18:54:00,
2013-01-03 10:59:00,39.2,26.9,30.14,West,261,0.0,2.0,61,0.00,,---,0.00,VWS V14.01,2013-01-03 18:59:00,
2013-01-03 11:04:00,39.4,26.3,30.14,West,263,0.0,2.0,59,0.00,,---,0.00,VWS V14.01,2013-01-03 19:04:00,
2013-01-03 11:09:00,39.8,25.4,30.14,West,264,0.0,3.0,56,0.00,,---,0.00,VWS V14.01,2013-01-03 19:09:00,
2013-01-03 11:14:00,39.6,29.2,30.14,West,263,0.0,4.0,66,0.00,,---,0.00,VWS V14.01,2013-01-03 19:14:00,
2013-01-03 11:51:00,39.0,29.0,30.13,NNW,346,0.0,0.0,67,0.00,,---,0.00,VWS V14.01,2013-01-03 19:51:00,
2013-01-03 11:56:00,39.0,28.2,30.13,NNW,346,0.0,0.0,65,0.00,,---,0.00,VWS V14.01,2013-01-03 19:56:00,
2013-01-03 12:01:00,39.2,28.4,30.13,NNW,346,0.0,0.0,65,0.00,,---,0.00,VWS V14.01,2013-01-03 20:01:00,
2013-01-03 12:06:00,39.6,28.1,30.13,NNW,346,0.0,0.0,63,0.00,,---,0.00,VWS V14.01,2013-01-03 20:06:00,
2013-01-03 12:11:00,39.8,27.5,30.13,NW,323,0.0,2.0,61,0.00,,---,0.00,VWS V14.01,2013-01-03 20:11:00,
2013-01-03 12:16:00,40.8,27.6,30.13,NW,307,1.0,1.0,59,0.00,,---,0.00,VWS V14.01,2013-01-03 20:16:00,
2013-01-03 12:21:00,40.8,27.2,30.12,WSW,244,1.0,2.0,58,0.00,,---,0.00,VWS V14.01,2013-01-03 20:21:00,
2013-01-03 12:26:00,40.8,30.0,30.12,WSW,245,0.0,0.0,65,0.00,,---,0.00,VWS V14.01,2013-01-03 20:26:00,
2013-01-03 12:31:00,40.2,29.0,30.12,WSW,245,0.0,0.0,64,0.00,,---,0.00,VWS V14.01,2013-01-03 20:31:00,
2013-01-03 12:36:00,40.2,29.0,30.12,WSW,245,0.0,0.0,64,0.00,,---,0.00,VWS V14.01,2013-01-03 20:36:00,
2013-01-03 12:41:00,40.5,28.1,30.12,WSW,245,0.0,0.0,61,0.00,,---,0.00,VWS V14.01,2013-01-03 20:41:00,
2013-01-03 12:46:00,40.9,27.7,30.11,WSW,245,0.0,0.0,59,0.00,,---,0.00,VWS V14.01,2013-01-03 20:46:00,
2013-01-03 12:51:00,41.2,28.8,30.11,WSW,245,1.0,1.0,61,0.00,,---,0.00,VWS V14.01,2013-01-03 20:51:00,
2013-01-03 12:56:00,41.6,28.4,30.11,WSW,245,0.0,0.0,59,0.00,,---,0.00,VWS V14.01,2013-01-03 20:56:00,
2013-01-03 13:01:00,41.6,28.4,30.11,WSW,245,0.0,1.0,59,0.00,,---,0.00,VWS V14.01,2013-01-03 21:01:00,
2013-01-03 13:06:00,41.5,29.1,30.11,WSW,245,1.0,2.0,61,0.00,,---,0.00,VWS V14.01,2013-01-03 21:06:00,
2013-01-03 13:11:00,41.7,27.6,30.11,NNW,332,0.0,3.0,57,0.00,,---,0.00,VWS V14.01,2013-01-03 21:11:00,
2013-01-03 13:16:00,42.0,29.1,30.11,NNW,331,0.0,0.0,60,0.00,,---,0.00,VWS V14.01,2013-01-03 21:16:00,
2013-01-03 13:21:00,41.8,29.0,30.10,NNW,332,0.0,0.0,60,0.00,,---,0.00,VWS V14.01,2013-01-03 21:21:00,
2013-01-03 13:26:00,41.9,28.6,30.11,NNW,331,2.0,2.0,59,0.00,,---,0.00,VWS V14.01,2013-01-03 21:26:00,
2013-01-03 13:31:00,41.6,30.0,30.11,NNW,331,0.0,0.0,63,0.00,,---,0.00,VWS V14.01,2013-01-03 21:31:00,
2013-01-03 13:36:00,41.0,30.1,30.11,NNW,331,1.0,1.0,65,0.00,,---,0.00,VWS V14.01,2013-01-03 21:36:00,
2013-01-03 13:41:00,41.0,29.8,30.11,NNW,331,0.0,0.0,64,0.00,,---,0.00,VWS V14.01,2013-01-03 21:41:00,
2013-01-03 13:46:00,41.0,30.5,30.12,NNW,331,0.0,0.0,66,0.00,,---,0.00,VWS V14.01,2013-01-03 21:46:00,
2013-01-03 13:51:00,40.9,29.3,30.12,NNW,331,0.0,0.0,63,0.00,,---,0.00,VWS V14.01,2013-01-03 21:51:00,
2013-01-03 13:56:00,41.0,31.3,30.12,NNW,331,1.0,2.0,68,0.00,,---,0.00,VWS V14.01,2013-01-03 21:56:00,
2013-01-03 14:01:00,40.9,30.8,30.12,NNW,331,0.0,0.0,67,0.00,,---,0.00,VWS V14.01,2013-01-03 22:01:00,
2013-01-03 14:06:00,40.3,29.9,30.11,NNW,331,0.0,0.0,66,0.00,,---,0.00,VWS V14.01,2013-01-03 22:06:00,
2013-01-03 14:11:00,40.1,28.5,30.11,NNW,331,0.0,0.0,63,0.00,,---,0.00,VWS V14.01,2013-01-03 22:11:00,
2013-01-03 14:16:00,40.3,29.1,30.11,NNW,331,0.0,0.0,64,0.00,,---,0.00,VWS V14.01,2013-01-03 22:16:00,
2013-01-03 14:21:00,42.1,27.1,30.11,East,86,6.0,7.0,55,0.00,,---,0.00,VWS V14.01,2013-01-03 22:21:00,
2013-01-03 14:26:00,42.8,26.9,30.11,East,94,2.0,2.0,53,0.00,,---,0.00,VWS V14.01,2013-01-03 22:26:00,
2013-01-03 14:31:00,43.2,25.4,30.11,East,91,6.0,6.0,49,0.00,,---,0.00,VWS V14.01,2013-01-03 22:31:00,
2013-01-03 14:36:00,43.2,24.9,30.11,ENE,73,3.0,3.0,48,0.00,,---,0.00,VWS V14.01,2013-01-03 22:36:00,
2013-01-03 14:41:00,43.7,24.3,30.11,ENE,68,5.0,8.0,46,0.00,,---,0.00,VWS V14.01,2013-01-03 22:41:00,
2013-01-03 14:46:00,43.8,23.9,30.12,East,85,7.0,7.0,45,0.00,,---,0.00,VWS V14.01,2013-01-03 22:46:00,
2013-01-03 14:51:00,43.7,23.8,30.11,ESE,113,2.0,8.0,45,0.00,,---,0.00,VWS V14.01,2013-01-03 22:51:00,
2013-01-03 14:56:00,43.3,25.4,30.12,SSW,207,0.0,7.0,49,0.00,,---,0.00,VWS V14.01,2013-01-03 22:56:00,
2013-01-03 15:01:00,42.3,26.9,30.12,ENE,60,0.0,1.0,54,0.00,,---,0.00,VWS V14.01,2013-01-03 23:01:00,
2013-01-03 15:06:00,40.8,28.0,30.12,SW,222,1.0,1.0,60,0.00,,---,0.00,VWS V14.01,2013-01-03 23:06:00,
2013-01-03 15:11:00,41.1,24.8,30.13,ESE,119,5.0,8.0,52,0.00,,---,0.00,VWS V14.01,2013-01-03 23:11:00,
2013-01-03 15:17:00,41.2,25.4,30.13,SW,216,2.0,5.0,53,0.00,,---,0.00,VWS V14.01,2013-01-03 23:17:00,
2013-01-03 15:22:00,40.7,26.2,30.13,SW,216,0.0,0.0,56,0.00,,---,0.00,VWS V14.01,2013-01-03 23:22:00,
2013-01-03 15:27:00,40.0,26.4,30.14,SW,216,0.0,1.0,58,0.00,,---,0.00,VWS V14.01,2013-01-03 23:27:00,
2013-01-03 15:31:00,39.5,26.8,30.15,SW,216,0.0,1.0,60,0.00,,---,0.00,VWS V14.01,2013-01-03 23:31:00,
2013-01-03 15:37:00,39.0,27.5,30.15,SW,216,0.0,0.0,63,0.00,,---,0.00,VWS V14.01,2013-01-03 23:37:00,
2013-01-03 15:41:00,38.3,28.0,30.15,SW,216,0.0,0.0,66,0.00,,---,0.00,VWS V14.01,2013-01-03 23:41:00,
2013-01-03 15:46:00,38.3,29.0,30.15,SW,216,0.0,0.0,69,0.00,,---,0.00,VWS V14.01,2013-01-03 23:46:00,
2013-01-03 15:51:00,37.9,27.9,30.15,SW,216,2.0,2.0,67,0.00,,---,0.00,VWS V14.01,2013-01-03 23:51:00,
2013-01-03 15:56:00,38.6,26.7,30.15,SW,216,0.0,0.0,62,0.00,,---,0.00,VWS V14.01,2013-01-03 23:56:00,
2013-01-03 16:01:00,38.5,28.5,30.15,SW,216,0.0,0.0,67,0.00,,---,0.00,VWS V14.01,2013-01-04 00:01:00,
2013-01-03 16:06:00,38.6,28.6,30.15,SW,216,0.0,0.0,67,0.00,,---,0.00,VWS V14.01,2013-01-04 00:06:00,
2013-01-03 16:11:00,38.8,26.9,30.14,East,87,4.0,5.0,62,0.00,,---,0.00,VWS V14.01,2013-01-04 00:11:00,
2013-01-03 16:17:00,40.0,25.1,30.14,East,101,1.0,8.0,55,0.00,,---,0.00,VWS V14.01,2013-01-04 00:17:00,
2013-01-03 16:21:00,40.8,25.5,30.14,SSE,163,5.0,5.0,54,0.00,,---,0.00,VWS V14.01,2013-01-04 00:21:00,
2013-01-03 16:26:00,41.1,24.4,30.13,ESE,121,6.0,12.0,51,0.00,,---,0.00,VWS V14.01,2013-01-04 00:26:00,
2013-01-03 16:31:00,41.3,23.6,30.14,East,98,1.0,7.0,49,0.00,,---,0.00,VWS V14.01,2013-01-04 00:31:00,
2013-01-03 16:36:00,41.3,24.1,30.14,SE,128,1.0,6.0,50,0.00,,---,0.00,VWS V14.01,2013-01-04 00:36:00,
2013-01-03 16:41:00,41.2,24.0,30.14,ENE,70,3.0,7.0,50,0.00,,---,0.00,VWS V14.01,2013-01-04 00:41:00,
2013-01-03 16:46:00,41.1,23.9,30.14,East,86,6.0,9.0,50,0.00,,---,0.00,VWS V14.01,2013-01-04 00:46:00,
2013-01-03 16:52:00,41.1,23.9,30.14,SE,140,5.0,9.0,50,0.00,,---,0.00,VWS V14.01,2013-01-04 00:52:00,
2013-01-03 16:56:00,41.0,23.8,30.14,ENE,76,10.0,11.0,50,0.00,,---,0.00,VWS V14.01,2013-01-04 00:56:00,
2013-01-03 17:01:00,41.2,23.5,30.14,ENE,61,4.0,12.0,49,0.00,,---,0.00,VWS V14.01,2013-01-04 01:01:00,
2013-01-03 17:06:00,41.1,23.9,30.14,East,92,5.0,8.0,50,0.00,,---,0.00,VWS V14.01,2013-01-04 01:06:00,
2013-01-03 17:11:00,41.0,23.3,30.14,East,93,1.0,6.0,49,0.00,,---,0.00,VWS V14.01,2013-01-04 01:11:00,
2013-01-03 17:17:00,41.1,23.4,30.14,ESE,109,2.0,7.0,49,0.00,,---,0.00,VWS V14.01,2013-01-04 01:17:00,
2013-01-03 17:21:00,41.1,22.9,30.14,ENE,71,2.0,4.0,48,0.00,,---,0.00,VWS V14.01,2013-01-04 01:21:00,
2013-01-03 17:27:00,41.1,23.4,30.13,ENE,57,0.0,6.0,49,0.00,,---,0.00,VWS V14.01,2013-01-04 01:27:00,
2013-01-03 17:31:00,41.0,23.3,30.13,East,90,2.0,9.0,49,0.00,,---,0.00,VWS V14.01,2013-01-04 01:31:00,
2013-01-03 17:36:00,40.9,22.7,30.13,NE,40,1.0,7.0,48,0.00,,---,0.00,VWS V14.01,2013-01-04 01:36:00,
2013-01-03 17:42:00,41.0,22.8,30.13,ESE,115,1.0,9.0,48,0.00,,---,0.00,VWS V14.01,2013-01-04 01:42:00,
2013-01-03 17:46:00,41.0,22.8,30.12,SE,132,5.0,11.0,48,0.00,,---,0.00,VWS V14.01,2013-01-04 01:46:00,
2013-01-03 17:52:00,41.0,23.8,30.12,NE,39,7.0,7.0,50,0.00,,---,0.00,VWS V14.01,2013-01-04 01:52:00,
2013-01-03 17:56:00,41.0,22.8,30.12,ENE,59,2.0,7.0,48,0.00,,---,0.00,VWS V14.01,2013-01-04 01:56:00,
2013-01-03 18:01:00,40.9,23.2,30.12,SE,126,9.0,9.0,49,0.00,,---,0.00,VWS V14.01,2013-01-04 02:01:00,
2013-01-03 18:06:00,40.8,23.1,30.12,ESE,111,4.0,7.0,49,0.00,,---,0.00,VWS V14.01,2013-01-04 02:06:00,
2013-01-03 18:11:00,40.9,23.2,30.12,NE,48,7.0,8.0,49,0.00,,---,0.00,VWS V14.01,2013-01-04 02:11:00,
2013-01-03 18:16:00,40.9,23.2,30.12,ENE,60,5.0,6.0,49,0.00,,---,0.00,VWS V14.01,2013-01-04 02:16:00,
2013-01-03 18:21:00,40.9,22.7,30.13,ENE,63,5.0,5.0,48,0.00,,---,0.00,VWS V14.01,2013-01-04 02:21:00,
2013-01-03 18:26:00,40.9,23.2,30.14,WSW,250,1.0,8.0,49,0.00,,---,0.00,VWS V14.01,2013-01-04 02:26:00,
2013-01-03 18:31:00,40.6,23.9,30.13,ESE,119,4.0,5.0,51,0.00,,---,0.00,VWS V14.01,2013-01-04 02:31:00,
2013-01-03 18:36:00,40.6,25.7,30.14,SSE,150,0.0,0.0,55,0.00,,---,0.00,VWS V14.01,2013-01-04 02:36:00,
2013-01-03 18:41:00,40.2,27.4,30.14,SSE,150,0.0,0.0,60,0.00,,---,0.00,VWS V14.01,2013-01-04 02:41:00,
2013-01-03 18:46:00,39.6,27.3,30.15,SSW,192,0.0,3.0,61,0.00,,---,0.00,VWS V14.01,2013-01-04 02:46:00,
2013-01-03 18:51:00,39.3,27.8,30.15,SSW,192,0.0,0.0,63,0.00,,---,0.00,VWS V14.01,2013-01-04 02:51:00,
2013-01-03 18:56:00,38.5,30.6,30.16,SSW,192,1.0,2.0,73,0.02,,---,0.02,VWS V14.01,2013-01-04 02:56:00,
2013-01-03 19:01:00,37.8,31.9,30.15,SSW,192,0.0,0.0,79,0.02,,---,0.02,VWS V14.01,2013-01-04 03:01:00,
2013-01-03 19:06:00,36.9,31.6,30.16,WSW,240,2.0,4.0,81,0.02,,---,0.02,VWS V14.01,2013-01-04 03:06:00,
2013-01-03 19:11:00,36.4,31.7,30.16,WSW,240,2.0,2.0,83,0.03,,---,0.03,VWS V14.01,2013-01-04 03:11:00,
2013-01-03 19:16:00,36.0,31.6,30.16,WSW,240,0.0,0.0,84,0.03,,---,0.03,VWS V14.01,2013-01-04 03:16:00,
2013-01-03 19:21:00,35.8,31.5,30.16,South,170,4.0,5.0,84,0.03,,---,0.03,VWS V14.01,2013-01-04 03:21:00,
2013-01-03 19:26:00,35.9,31.5,30.16,SSE,163,0.0,2.0,84,0.03,,---,0.03,VWS V14.01,2013-01-04 03:26:00,
2013-01-03 19:31:00,35.8,31.5,30.17,SSE,163,0.0,0.0,84,0.04,,---,0.04,VWS V14.01,2013-01-04 03:31:00,
2013-01-03 19:36:00,35.7,31.4,30.17,SSE,150,0.0,2.0,84,0.04,,---,0.04,VWS V14.01,2013-01-04 03:36:00,
2013-01-03 19:41:00,35.6,31.5,30.16,SSE,157,1.0,2.0,85,0.06,,---,0.06,VWS V14.01,2013-01-04 03:41:00,
2013-01-03 19:46:00,35.6,31.5,30.16,East,86,2.0,9.0,85,0.06,,---,0.06,VWS V14.01,2013-01-04 03:46:00,
2013-01-03 19:51:00,35.6,31.5,30.16,SE,136,0.0,0.0,85,0.06,,---,0.06,VWS V14.01,2013-01-04 03:51:00,
2013-01-03 19:56:00,35.6,31.5,30.16,SSE,150,1.0,9.0,85,0.06,,---,0.07,VWS V14.01,2013-01-04 03:56:00,
2013-01-03 20:01:00,35.5,31.5,30.16,ESE,114,2.0,7.0,85,0.05,,---,0.07,VWS V14.01,2013-01-04 04:01:00,
2013-01-03 20:06:00,35.5,31.5,30.16,ESE,123,4.0,5.0,85,0.05,,---,0.07,VWS V14.01,2013-01-04 04:06:00,
2013-01-03 20:11:00,35.6,31.5,30.15,ENE,57,0.0,2.0,85,0.05,,---,0.07,VWS V14.01,2013-01-04 04:11:00,
2013-01-03 20:16:00,35.6,31.5,30.16,SE,138,1.0,11.0,85,0.04,,---,0.07,VWS V14.01,2013-01-04 04:16:00,
2013-01-03 20:21:00,35.6,31.5,30.16,South,177,6.0,8.0,85,0.04,,---,0.07,VWS V14.01,2013-01-04 04:21:00,
2013-01-03 20:26:00,35.6,31.5,30.16,South,169,2.0,9.0,85,0.04,,---,0.07,VWS V14.01,2013-01-04 04:26:00,
2013-01-03 20:31:00,35.5,31.5,30.16,SE,146,0.0,8.0,85,0.03,,---,0.07,VWS V14.01,2013-01-04 04:31:00,
2013-01-03 20:36:00,35.5,31.5,30.16,ESE,111,4.0,7.0,85,0.03,,---,0.07,VWS V14.01,2013-01-04 04:36:00,
2013-01-03 20:41:00,35.5,31.5,30.16,South,170,1.0,8.0,85,0.02,,---,0.07,VWS V14.01,2013-01-04 04:41:00,
2013-01-03 20:46:00,35.6,31.5,30.16,ENE,73,0.0,0.0,85,0.01,,---,0.07,VWS V14.01,2013-01-04 04:46:00,
2013-01-03 20:51:00,35.8,31.7,30.16,SE,131,2.0,5.0,85,0.01,,---,0.07,VWS V14.01,2013-01-04 04:51:00,
2013-01-03 20:56:00,36.0,31.9,30.16,ENE,61,2.0,11.0,85,0.00,,---,0.07,VWS V14.01,2013-01-04 04:56:00,
2013-01-03 21:00:00,36.1,32.0,30.16,ESE,107,0.0,11.0,85,0.00,,---,0.07,VWS V14.01,2013-01-04 05:00:00,
2013-01-03 21:03:00,36.0,31.9,30.16,SE,127,0.0,5.0,85,0.00,,---,0.07,VWS V14.01,2013-01-04 05:03:00,
2013-01-03 21:08:00,36.0,31.9,30.16,SSE,166,2.0,6.0,85,0.00,,---,0.07,VWS V14.01,2013-01-04 05:08:00,
2013-01-03 21:13:00,36.0,31.9,30.15,East,101,2.0,5.0,85,0.01,,---,0.08,VWS V14.01,2013-01-04 05:13:00,
2013-01-03 21:18:00,36.0,31.9,30.16,East,79,2.0,3.0,85,0.01,,---,0.08,VWS V14.01,2013-01-04 05:18:00,
2013-01-03 21:23:00,36.0,31.9,30.16,ESE,103,2.0,9.0,85,0.01,,---,0.08,VWS V14.01,2013-01-04 05:23:00,
2013-01-03 21:28:00,36.0,31.9,30.16,East,92,0.0,7.0,85,0.01,,---,0.08,VWS V14.01,2013-01-04 05:28:00,
2013-01-03 21:33:00,36.1,32.0,30.16,East,95,0.0,7.0,85,0.01,,---,0.08,VWS V14.01,2013-01-04 05:33:00,
2013-01-03 21:38:00,36.1,32.0,30.16,ESE,102,2.0,4.0,85,0.01,,---,0.08,VWS V14.01,2013-01-04 05:38:00,
2013-01-03 21:43:00,36.2,32.1,30.16,East,92,2.0,8.0,85,0.01,,---,0.08,VWS V14.01,2013-01-04 05:43:00,
2013-01-03 21:48:00,36.3,32.2,30.16,East,89,2.0,6.0,85,0.01,,---,0.08,VWS V14.01,2013-01-04 05:48:00,
2013-01-03 21:53:00,36.4,32.3,30.16,ESE,121,1.0,5.0,85,0.01,,---,0.08,VWS V14.01,2013-01-04 05:53:00,
2013-01-03 21:58:00,36.5,32.4,30.17,SE,142,0.0,0.0,85,0.01,,---,0.08,VWS V14.01,2013-01-04 05:58:00,
2013-01-03 22:03:00,36.4,32.3,30.16,ESE,111,0.0,5.0,85,0.01,,---,0.08,VWS V14.01,2013-01-04 06:03:00,
2013-01-03 22:08:00,36.4,32.3,30.17,SSE,161,0.0,5.0,85,0.02,,---,0.09,VWS V14.01,2013-01-04 06:08:00,
2013-01-03 22:13:00,36.4,32.3,30.17,SSE,165,0.0,2.0,85,0.02,,---,0.10,VWS V14.01,2013-01-04 06:13:00,
2013-01-03 22:18:00,36.3,32.2,30.17,SE,139,0.0,7.0,85,0.02,,---,0.10,VWS V14.01,2013-01-04 06:18:00,
2013-01-03 22:23:00,36.3,32.2,30.17,SSE,167,1.0,2.0,85,0.02,,---,0.10,VWS V14.01,2013-01-04 06:23:00,
2013-01-03 22:28:00,36.4,32.3,30.17,ESE,121,2.0,5.0,85,0.02,,---,0.10,VWS V14.01,2013-01-04 06:28:00,
2013-01-03 22:33:00,36.5,32.4,30.17,SSE,163,0.0,5.0,85,0.02,,---,0.10,VWS V14.01,2013-01-04 06:33:00,
2013-01-03 22:38:00,36.5,32.4,30.18,East,96,0.0,2.0,85,0.02,,---,0.10,VWS V14.01,2013-01-04 06:38:00,
2013-01-03 22:43:00,36.5,32.4,30.18,East,97,0.0,2.0,85,0.02,,---,0.10,VWS V14.01,2013-01-04 06:43:00,
2013-01-03 22:48:00,36.4,32.3,30.18,SSW,194,0.0,4.0,85,0.02,,---,0.10,VWS V14.01,2013-01-04 06:48:00,
2013-01-03 22:53:00,36.3,32.2,30.18,SSW,194,0.0,0.0,85,0.02,,---,0.10,VWS V14.01,2013-01-04 06:53:00,
2013-01-03 22:58:00,36.4,32.3,30.18,South,169,0.0,6.0,85,0.02,,---,0.10,VWS V14.01,2013-01-04 06:58:00,
2013-01-03 23:03:00,36.4,32.3,30.18,WSW,238,0.0,3.0,85,0.02,,---,0.10,VWS V14.01,2013-01-04 07:03:00,
2013-01-03 23:08:00,36.4,32.3,30.18,East,88,0.0,3.0,85,0.02,,---,0.10,VWS V14.01,2013-01-04 07:08:00,
2013-01-03 23:13:00,36.4,32.3,30.18,East,88,0.0,0.0,85,0.01,,---,0.10,VWS V14.01,2013-01-04 07:13:00,
2013-01-03 23:18:00,36.4,32.3,30.18,East,88,0.0,0.0,85,0.00,,---,0.10,VWS V14.01,2013-01-04 07:18:00,
2013-01-03 23:23:00,36.4,32.3,30.18,East,88,0.0,0.0,85,0.00,,---,0.10,VWS V14.01,2013-01-04 07:23:00,
2013-01-03 23:28:00,36.4,32.3,30.18,East,88,0.0,0.0,85,0.00,,---,0.10,VWS V14.01,2013-01-04 07:28:00,
2013-01-03 23:33:00,36.5,32.4,30.18,WSW,249,1.0,2.0,85,0.02,,---,0.12,VWS V14.01,2013-01-04 07:33:00,
2013-01-03 23:38:00,36.5,32.4,30.18,WSW,249,0.0,1.0,85,0.02,,---,0.12,VWS V14.01,2013-01-04 07:38:00,
2013-01-03 23:43:00,36.5,32.4,30.18,WSW,249,0.0,0.0,85,0.02,,---,0.12,VWS V14.01,2013-01-04 07:43:00,
2013-01-03 23:48:00,36.4,32.3,30.18,WSW,249,0.0,0.0,85,0.02,,---,0.12,VWS V14.01,2013-01-04 07:48:00,
2013-01-03 23:53:00,36.5,32.4,30.18,East,82,0.0,4.0,85,0.02,,---,0.12,VWS V14.01,2013-01-04 07:53:00,
2013-01-03 23:58:00,36.6,32.2,30.18,ENE,65,0.0,0.0,84,0.02,,---,0.12,VWS V14.01,2013-01-04 07:58:00,